Time,TemperatureF,DewpointF,PressureIn,WindDirection,WindDirectionDegrees,WindSpeedMPH,WindSpeedGustMPH,Humidity,HourlyPrecipIn,Conditions,Clouds,dailyrainin,SoftwareType,DateUTC
2013-03-04 00:01:00,20.5,15.6,30.16,NNE,24,0.0,22.0,81,0.00,,,0.00,Wunderground v.1.15,2013-03-04 05:01:00,
2013-03-04 00:06:00,20.6,15.7,30.16,NNW,343,1.0,22.0,81,0.00,,,0.00,Wunderground v.1.15,2013-03-04 05:06:00,
2013-03-04 00:11:00,20.6,15.7,30.16,NNW,340,1.0,1.0,81,0.00,,,0.00,Wunderground v.1.15,2013-03-04 05:11:00,
2013-03-04 00:16:00,20.7,15.8,30.16,NW,309,1.0,2.0,81,0.00,,,0.00,Wunderground v.1.15,2013-03-04 05:16:00,
2013-03-04 00:21:00,20.8,15.9,30.16,NE,42,1.0,1.0,81,0.00,,,0.00,Wunderground v.1.15,2013-03-04 05:21:00,
2013-03-04 00:31:00,21.0,16.1,30.16,North,10,0.0,22.0,81,0.00,,,0.00,Wunderground v.1.15,2013-03-04 05:31:00,
2013-03-04 00:41:00,21.1,16.2,30.16,NNW,333,1.0,1.0,81,0.00,,,0.00,Wunderground v.1.15,2013-03-04 05:41:00,
2013-03-04 00:46:00,21.2,16.3,30.16,NW,318,0.0,7.0,81,0.00,,,0.00,Wunderground v.1.15,2013-03-04 05:46:00,
2013-03-04 00:51:00,21.3,16.1,30.16,NW,317,1.0,1.0,80,0.00,,,0.00,Wunderground v.1.15,2013-03-04 05:51:00,
2013-03-04 00:56:00,21.4,16.2,30.16,NE,44,1.0,22.0,80,0.00,,,0.00,Wunderground v.1.15,2013-03-04 05:56:00,
2013-03-04 01:01:00,21.5,16.3,30.16,NE,44,0.0,22.0,80,0.00,,,0.00,Wunderground v.1.15,2013-03-04 06:01:00,
2013-03-04 01:11:00,21.5,16.3,30.16,North,5,0.0,22.0,80,0.00,,,0.00,Wunderground v.1.15,2013-03-04 06:11:00,
2013-03-04 01:16:00,21.6,16.4,30.16,North,360,0.0,22.0,80,0.00,,,0.00,Wunderground v.1.15,2013-03-04 06:16:00,
2013-03-04 01:21:00,21.5,16.3,30.16,North,360,0.0,22.0,80,0.00,,,0.00,Wunderground v.1.15,2013-03-04 06:21:00,
2013-03-04 01:26:00,21.5,16.3,30.16,North,5,0.0,22.0,80,0.00,,,0.00,Wunderground v.1.15,2013-03-04 06:26:00,
2013-03-04 01:31:00,21.5,16.3,30.16,NNW,328,0.0,22.0,80,0.00,,,0.00,Wunderground v.1.15,2013-03-04 06:31:00,
2013-03-04 01:36:00,21.5,16.3,30.16,NNW,331,1.0,22.0,80,0.00,,,0.00,Wunderground v.1.15,2013-03-04 06:36:00,
2013-03-04 01:46:00,21.5,16.3,30.16,NNW,340,0.0,22.0,80,0.00,,,0.00,Wunderground v.1.15,2013-03-04 06:46:00,
2013-03-04 01:51:00,21.3,16.1,30.16,NNW,340,0.0,22.0,80,0.00,,,0.00,Wunderground v.1.15,2013-03-04 06:51:00,
2013-03-04 01:56:00,21.2,16.0,30.16,NNW,340,0.0,22.0,80,0.00,,,0.00,Wunderground v.1.15,2013-03-04 06:56:00,
2013-03-04 02:01:00,20.9,15.7,30.16,NNW,340,0.0,22.0,80,0.00,,,0.00,Wunderground v.1.15,2013-03-04 07:01:00,
2013-03-04 02:06:00,20.4,15.5,30.17,NNW,340,0.0,22.0,81,0.00,,,0.00,Wunderground v.1.15,2013-03-04 07:06:00,
2013-03-04 02:11:00,20.2,15.3,30.17,NNW,340,0.0,22.0,81,0.00,,,0.00,Wunderground v.1.15,2013-03-04 07:11:00,
2013-03-04 02:16:00,19.9,15.3,30.16,NNW,341,0.0,22.0,82,0.00,,,0.00,Wunderground v.1.15,2013-03-04 07:16:00,
2013-03-04 02:21:00,19.7,15.1,30.17,NNW,341,0.0,22.0,82,0.00,,,0.00,Wunderground v.1.15,2013-03-04 07:21:00,
2013-03-04 02:26:00,19.5,15.2,30.16,NNW,341,0.0,22.0,83,0.00,,,0.00,Wunderground v.1.15,2013-03-04 07:26:00,
2013-03-04 02:36:00,19.1,14.8,30.16,NNW,341,0.0,22.0,83,0.00,,,0.00,Wunderground v.1.15,2013-03-04 07:36:00,
2013-03-04 02:41:00,18.9,14.9,30.16,NNW,341,0.0,22.0,84,0.00,,,0.00,Wunderground v.1.15,2013-03-04 07:41:00,
2013-03-04 02:46:00,18.8,14.8,30.16,NNW,341,0.0,22.0,84,0.00,,,0.00,Wunderground v.1.15,2013-03-04 07:46:00,
2013-03-04 02:56:00,18.9,15.1,30.16,NNW,341,0.0,22.0,85,0.00,,,0.00,Wunderground v.1.15,2013-03-04 07:56:00,
2013-03-04 03:01:00,19.1,15.3,30.16,NNW,341,0.0,22.0,85,0.00,,,0.00,Wunderground v.1.15,2013-03-04 08:01:00,
2013-03-04 03:11:00,19.3,15.3,30.16,NNW,341,0.0,22.0,84,0.00,,,0.00,Wunderground v.1.15,2013-03-04 08:11:00,
2013-03-04 03:21:00,19.5,15.5,30.16,NNW,341,0.0,22.0,84,0.00,,,0.00,Wunderground v.1.15,2013-03-04 08:21:00,
2013-03-04 03:26:00,19.7,15.9,30.16,NNW,341,0.0,22.0,85,0.00,,,0.00,Wunderground v.1.15,2013-03-04 08:26:00,
2013-03-04 03:36:00,19.9,15.8,30.16,NNW,341,0.0,22.0,84,0.00,,,0.00,Wunderground v.1.15,2013-03-04 08:36:00,
2013-03-04 03:41:00,19.9,15.8,30.16,NNW,341,0.0,22.0,84,0.00,,,0.00,Wunderground v.1.15,2013-03-04 08:41:00,
2013-03-04 03:46:00,19.8,15.5,30.16,NNW,341,0.0,22.0,83,0.00,,,0.00,Wunderground v.1.15,2013-03-04 08:46:00,
2013-03-04 03:56:00,19.4,15.4,30.16,NNW,341,0.0,22.0,84,0.00,,,0.00,Wunderground v.1.15,2013-03-04 08:56:00,
2013-03-04 04:00:00,19.3,15.3,30.17,NNW,341,0.0,22.0,84,0.00,,,0.00,Wunderground v.1.15,2013-03-04 09:00:00,
2013-03-04 04:05:00,19.1,15.1,30.17,NNW,341,0.0,22.0,84,0.00,,,0.00,Wunderground v.1.15,2013-03-04 09:05:00,
2013-03-04 04:10:00,19.0,15.2,30.17,NNW,341,0.0,22.0,85,0.00,,,0.00,Wunderground v.1.15,2013-03-04 09:10:00,
2013-03-04 04:16:00,18.7,14.7,30.17,NNW,341,0.0,22.0,84,0.00,,,0.00,Wunderground v.1.15,2013-03-04 09:16:00,
2013-03-04 04:25:00,17.9,13.9,30.17,NNW,341,0.0,22.0,84,0.00,,,0.00,Wunderground v.1.15,2013-03-04 09:25:00,
2013-03-04 04:35:00,17.1,13.6,30.18,NNW,341,0.0,22.0,86,0.00,,,0.00,Wunderground v.1.15,2013-03-04 09:35:00,
2013-03-04 04:40:00,16.8,13.3,30.18,NNW,341,0.0,22.0,86,0.00,,,0.00,Wunderground v.1.15,2013-03-04 09:40:00,
2013-03-04 04:45:00,16.6,13.1,30.18,NNW,341,0.0,22.0,86,0.00,,,0.00,Wunderground v.1.15,2013-03-04 09:45:00,
2013-03-04 04:50:00,16.3,13.1,30.18,NNW,341,0.0,22.0,87,0.00,,,0.00,Wunderground v.1.15,2013-03-04 09:50:00,
2013-03-04 05:06:00,15.3,12.4,30.19,NNW,341,0.0,22.0,88,0.00,,,0.00,Wunderground v.1.15,2013-03-04 10:06:00,
2013-03-04 05:11:00,14.9,12.0,30.19,North,360,0.0,22.0,88,0.00,,,0.00,Wunderground v.1.15,2013-03-04 10:11:00,
2013-03-04 05:21:00,14.1,11.2,30.19,North,360,0.0,22.0,88,0.00,,,0.00,Wunderground v.1.15,2013-03-04 10:21:00,
2013-03-04 05:26:00,13.9,11.0,30.19,NNE,16,0.0,22.0,88,0.00,,,0.00,Wunderground v.1.15,2013-03-04 10:26:00,
2013-03-04 05:31:00,13.7,10.8,30.19,NNE,28,0.0,22.0,88,0.00,,,0.00,Wunderground v.1.15,2013-03-04 10:31:00,
2013-03-04 05:36:00,13.4,10.5,30.19,NNE,28,0.0,22.0,88,0.00,,,0.00,Wunderground v.1.15,2013-03-04 10:36:00,
2013-03-04 05:46:00,12.9,10.0,30.19,NNE,30,0.0,22.0,88,0.00,,,0.00,Wunderground v.1.15,2013-03-04 10:46:00,
2013-03-04 05:51:00,12.8,9.9,30.19,NNE,30,0.0,22.0,88,0.00,,,0.00,Wunderground v.1.15,2013-03-04 10:51:00,
2013-03-04 05:56:00,12.7,10.1,30.19,NE,45,0.0,22.0,89,0.00,,,0.00,Wunderground v.1.15,2013-03-04 10:56:00,
2013-03-04 06:01:00,12.7,10.1,30.19,NE,46,0.0,22.0,89,0.00,,,0.00,Wunderground v.1.15,2013-03-04 11:01:00,
2013-03-04 06:06:00,12.8,10.2,30.19,NE,46,0.0,22.0,89,0.00,,,0.00,Wunderground v.1.15,2013-03-04 11:06:00,
2013-03-04 06:11:00,13.1,10.5,30.20,NE,46,0.0,22.0,89,0.00,,,0.00,Wunderground v.1.15,2013-03-04 11:11:00,
2013-03-04 06:21:00,13.3,10.7,30.20,NE,46,0.0,22.0,89,0.00,,,0.00,Wunderground v.1.15,2013-03-04 11:21:00,
2013-03-04 06:26:00,13.4,10.8,30.20,NE,46,0.0,22.0,89,0.00,,,0.00,Wunderground v.1.15,2013-03-04 11:26:00,
2013-03-04 06:36:00,13.5,10.9,30.20,NE,45,0.0,22.0,89,0.00,,,0.00,Wunderground v.1.15,2013-03-04 11:36:00,
2013-03-04 06:41:00,13.3,10.7,30.20,NE,46,0.0,22.0,89,0.00,,,0.00,Wunderground v.1.15,2013-03-04 11:41:00,
2013-03-04 06:46:00,13.1,10.5,30.20,NE,46,0.0,22.0,89,0.00,,,0.00,Wunderground v.1.15,2013-03-04 11:46:00,
2013-03-04 06:56:00,12.9,10.3,30.20,NE,45,0.0,22.0,89,0.00,,,0.00,Wunderground v.1.15,2013-03-04 11:56:00,
2013-03-04 07:01:00,12.8,10.2,30.20,NE,46,0.0,22.0,89,0.00,,,0.00,Wunderground v.1.15,2013-03-04 12:01:00,
2013-03-04 07:06:00,12.7,10.1,30.20,NE,46,0.0,22.0,89,0.00,,,0.00,Wunderground v.1.15,2013-03-04 12:06:00,
2013-03-04 07:11:00,12.8,10.2,30.21,NE,45,0.0,22.0,89,0.00,,,0.00,Wunderground v.1.15,2013-03-04 12:11:00,
2013-03-04 07:16:00,12.8,10.2,30.21,NE,46,1.0,22.0,89,0.00,,,0.00,Wunderground v.1.15,2013-03-04 12:16:00,
2013-03-04 07:21:00,12.7,10.1,30.21,NE,46,1.0,22.0,89,0.00,,,0.00,Wunderground v.1.15,2013-03-04 12:21:00,
2013-03-04 07:31:00,12.4,9.8,30.21,NE,45,1.0,22.0,89,0.00,,,0.00,Wunderground v.1.15,2013-03-04 12:31:00,
2013-03-04 07:36:00,12.3,9.7,30.21,NE,45,1.0,22.0,89,0.00,,,0.00,Wunderground v.1.15,2013-03-04 12:36:00,
2013-03-04 07:41:00,12.3,9.7,30.21,NE,46,1.0,1.0,89,0.00,,,0.00,Wunderground v.1.15,2013-03-04 12:41:00,
2013-03-04 07:46:00,12.2,9.6,30.21,NE,46,1.0,22.0,89,0.00,,,0.00,Wunderground v.1.15,2013-03-04 12:46:00,
2013-03-04 07:51:00,12.1,9.5,30.21,NE,46,0.0,22.0,89,0.00,,,0.00,Wunderground v.1.15,2013-03-04 12:51:00,
2013-03-04 08:01:00,12.3,9.9,30.21,NE,46,1.0,1.0,90,0.00,,,0.00,Wunderground v.1.15,2013-03-04 13:01:00,
2013-03-04 08:06:00,12.7,10.3,30.22,NE,46,1.0,22.0,90,0.00,,,0.00,Wunderground v.1.15,2013-03-04 13:06:00,
2013-03-04 08:11:00,13.3,10.9,30.22,NE,45,1.0,22.0,90,0.00,,,0.00,Wunderground v.1.15,2013-03-04 13:11:00,
2013-03-04 08:16:00,13.8,11.2,30.22,NE,46,1.0,22.0,89,0.00,,,0.00,Wunderground v.1.15,2013-03-04 13:16:00,
2013-03-04 08:21:00,14.1,11.2,30.22,NE,46,1.0,1.0,88,0.00,,,0.00,Wunderground v.1.15,2013-03-04 13:21:00,
2013-03-04 08:26:00,14.5,11.6,30.22,NE,45,1.0,22.0,88,0.00,,,0.00,Wunderground v.1.15,2013-03-04 13:26:00,
2013-03-04 08:36:00,15.3,11.9,30.22,NE,46,0.0,22.0,86,0.00,,,0.00,Wunderground v.1.15,2013-03-04 13:36:00,
2013-03-04 08:41:00,15.7,12.0,30.22,NE,46,0.0,22.0,85,0.00,,,0.00,Wunderground v.1.15,2013-03-04 13:41:00,
2013-03-04 08:46:00,16.0,12.0,30.22,NE,45,0.0,22.0,84,0.00,,,0.00,Wunderground v.1.15,2013-03-04 13:46:00,
2013-03-04 08:51:00,16.5,12.5,30.22,NE,45,0.0,22.0,84,0.00,,,0.00,Wunderground v.1.15,2013-03-04 13:51:00,
2013-03-04 08:56:00,16.9,12.6,30.22,NE,46,1.0,22.0,83,0.00,,,0.00,Wunderground v.1.15,2013-03-04 13:56:00,
2013-03-04 09:06:00,18.0,13.2,30.22,NE,46,0.0,22.0,81,0.00,,,0.00,Wunderground v.1.15,2013-03-04 14:06:00,
2013-03-04 09:11:00,18.5,13.4,30.22,NNE,30,0.0,22.0,80,0.00,,,0.00,Wunderground v.1.15,2013-03-04 14:11:00,
2013-03-04 09:16:00,18.8,13.4,30.22,NNE,17,1.0,22.0,79,0.00,,,0.00,Wunderground v.1.15,2013-03-04 14:16:00,
2013-03-04 09:21:00,19.0,13.6,30.22,NNW,339,1.0,22.0,79,0.00,,,0.00,Wunderground v.1.15,2013-03-04 14:21:00,
2013-03-04 09:26:00,19.2,13.5,30.22,NNW,341,1.0,22.0,78,0.00,,,0.00,Wunderground v.1.15,2013-03-04 14:26:00,
2013-03-04 09:31:00,19.3,13.6,30.22,NW,304,2.0,22.0,78,0.00,,,0.00,Wunderground v.1.15,2013-03-04 14:31:00,
2013-03-04 09:41:00,19.7,14.0,30.22,NW,325,1.0,22.0,78,0.00,,,0.00,Wunderground v.1.15,2013-03-04 14:41:00,
2013-03-04 09:46:00,19.8,13.8,30.22,NNW,336,2.0,22.0,77,0.00,,,0.00,Wunderground v.1.15,2013-03-04 14:46:00,
2013-03-04 09:51:00,20.2,14.4,30.22,WNW,296,2.0,2.0,78,0.00,,,0.00,Wunderground v.1.15,2013-03-04 14:51:00,
2013-03-04 09:56:00,20.6,14.5,30.22,North,5,1.0,22.0,77,0.00,,,0.00,Wunderground v.1.15,2013-03-04 14:56:00,
2013-03-04 10:01:00,20.8,14.7,30.22,NNE,33,1.0,22.0,77,0.00,,,0.00,Wunderground v.1.15,2013-03-04 15:01:00,
2013-03-04 10:10:00,21.2,15.1,30.22,NNE,21,1.0,22.0,77,0.00,,,0.00,Wunderground v.1.15,2013-03-04 15:10:00,
2013-03-04 10:16:00,21.1,15.0,30.22,East,90,2.0,22.0,77,0.00,,,0.00,Wunderground v.1.15,2013-03-04 15:16:00,
2013-03-04 10:21:00,21.4,15.0,30.22,NNW,341,3.0,3.0,76,0.00,,,0.00,Wunderground v.1.15,2013-03-04 15:21:00,
2013-03-04 10:26:00,21.5,15.1,30.22,North,360,2.0,22.0,76,0.00,,,0.00,Wunderground v.1.15,2013-03-04 15:26:00,
2013-03-04 10:31:00,21.7,15.3,30.23,NNW,331,1.0,22.0,76,0.00,,,0.00,Wunderground v.1.15,2013-03-04 15:31:00,
2013-03-04 10:36:00,21.8,15.4,30.22,NNW,338,1.0,22.0,76,0.00,,,0.00,Wunderground v.1.15,2013-03-04 15:36:00,
2013-03-04 10:46:00,22.4,16.3,30.22,NW,326,1.0,22.0,77,0.00,,,0.00,Wunderground v.1.15,2013-03-04 15:46:00,
2013-03-04 10:51:00,23.2,16.8,30.22,WNW,301,1.0,22.0,76,0.00,,,0.00,Wunderground v.1.15,2013-03-04 15:51:00,
2013-03-04 10:56:00,22.8,15.8,30.23,NNW,331,2.0,22.0,74,0.00,,,0.00,Wunderground v.1.15,2013-03-04 15:56:00,
2013-03-04 11:01:00,22.9,16.5,30.23,West,263,2.0,2.0,76,0.00,,,0.00,Wunderground v.1.15,2013-03-04 16:01:00,
2013-03-04 11:06:00,23.5,16.7,30.23,ENE,74,1.0,22.0,75,0.00,,,0.00,Wunderground v.1.15,2013-03-04 16:06:00,
2013-03-04 11:15:00,24.4,17.0,30.23,NW,325,1.0,22.0,73,0.00,,,0.00,Wunderground v.1.15,2013-03-04 16:15:00,
2013-03-04 11:21:00,25.0,17.2,30.22,WNW,293,1.0,22.0,72,0.00,,,0.00,Wunderground v.1.15,2013-03-04 16:21:00,
2013-03-04 11:30:00,23.8,16.1,30.23,North,5,2.0,2.0,72,0.00,,,0.00,Wunderground v.1.15,2013-03-04 16:30:00,
2013-03-04 11:36:00,24.2,16.1,30.22,ENE,76,1.0,22.0,71,0.00,,,0.00,Wunderground v.1.15,2013-03-04 16:36:00,
2013-03-04 11:41:00,24.2,16.1,30.22,ESE,123,1.0,1.0,71,0.00,,,0.00,Wunderground v.1.15,2013-03-04 16:41:00,
2013-03-04 11:46:00,24.3,15.3,30.22,West,267,1.0,3.0,68,0.00,,,0.00,Wunderground v.1.15,2013-03-04 16:46:00,
2013-03-04 11:51:00,24.4,15.7,30.22,WNW,303,2.0,22.0,69,0.00,,,0.00,Wunderground v.1.15,2013-03-04 16:51:00,
2013-03-04 12:01:00,23.9,16.8,30.22,WNW,300,2.0,22.0,74,0.00,,,0.00,Wunderground v.1.15,2013-03-04 17:01:00,
2013-03-04 12:11:00,23.4,17.6,30.22,WNW,290,3.0,22.0,78,0.00,,,0.00,Wunderground v.1.15,2013-03-04 17:11:00,
2013-03-04 12:16:00,23.3,17.5,30.22,West,269,3.0,22.0,78,0.00,,,0.00,Wunderground v.1.15,2013-03-04 17:16:00,
2013-03-04 12:21:00,23.3,17.7,30.22,WNW,302,3.0,22.0,79,0.00,,,0.00,Wunderground v.1.15,2013-03-04 17:21:00,
2013-03-04 12:26:00,23.1,17.8,30.22,WSW,252,4.0,22.0,80,0.00,,,0.00,Wunderground v.1.15,2013-03-04 17:26:00,
2013-03-04 12:31:00,23.1,17.3,30.22,WNW,294,4.0,22.0,78,0.00,,,0.00,Wunderground v.1.15,2013-03-04 17:31:00,
2013-03-04 12:41:00,23.0,17.7,30.22,NW,304,4.0,22.0,80,0.00,,,0.00,Wunderground v.1.15,2013-03-04 17:41:00,
2013-03-04 12:46:00,23.0,18.0,30.22,West,275,5.0,22.0,81,0.00,,,0.00,Wunderground v.1.15,2013-03-04 17:46:00,
2013-03-04 12:51:00,22.9,17.9,30.21,West,267,5.0,22.0,81,0.00,,,0.00,Wunderground v.1.15,2013-03-04 17:51:00,
2013-03-04 12:56:00,22.9,18.2,30.21,WNW,288,5.0,22.0,82,0.00,,,0.00,Wunderground v.1.15,2013-03-04 17:56:00,
2013-03-04 13:01:00,22.6,17.9,30.21,West,271,5.0,22.0,82,0.00,,,0.00,Wunderground v.1.15,2013-03-04 18:01:00,
2013-03-04 13:06:00,22.7,18.3,30.21,West,265,5.0,22.0,83,0.00,,,0.00,Wunderground v.1.15,2013-03-04 18:06:00,
2013-03-04 13:16:00,22.6,18.2,30.21,West,268,6.0,22.0,83,0.00,,,0.00,Wunderground v.1.15,2013-03-04 18:16:00,
2013-03-04 13:21:00,22.6,18.2,30.21,West,264,6.0,22.0,83,0.00,,,0.00,Wunderground v.1.15,2013-03-04 18:21:00,
2013-03-04 13:26:00,22.6,18.2,30.21,West,280,6.0,22.0,83,0.00,,,0.00,Wunderground v.1.15,2013-03-04 18:26:00,
2013-03-04 13:31:00,22.6,18.2,30.21,West,267,6.0,22.0,83,0.00,,,0.00,Wunderground v.1.15,2013-03-04 18:31:00,
2013-03-04 13:36:00,22.7,18.6,30.21,West,276,6.0,22.0,84,0.00,,,0.00,Wunderground v.1.15,2013-03-04 18:36:00,
2013-03-04 13:41:00,22.9,18.5,30.20,WNW,284,5.0,22.0,83,0.00,,,0.00,Wunderground v.1.15,2013-03-04 18:41:00,
2013-03-04 13:46:00,22.9,18.2,30.20,West,265,5.0,22.0,82,0.00,,,0.00,Wunderground v.1.15,2013-03-04 18:46:00,
2013-03-04 13:51:00,23.1,18.7,30.20,West,273,5.0,22.0,83,0.00,,,0.00,Wunderground v.1.15,2013-03-04 18:51:00,
2013-03-04 13:56:00,23.1,18.7,30.20,West,280,6.0,22.0,83,0.00,,,0.00,Wunderground v.1.15,2013-03-04 18:56:00,
2013-03-04 14:01:00,23.1,18.4,30.20,WNW,292,6.0,22.0,82,0.00,,,0.00,Wunderground v.1.15,2013-03-04 19:01:00,
2013-03-04 14:06:00,23.3,18.6,30.19,WNW,283,6.0,22.0,82,0.00,,,0.00,Wunderground v.1.15,2013-03-04 19:06:00,
2013-03-04 14:11:00,23.3,18.6,30.19,West,281,6.0,22.0,82,0.00,,,0.00,Wunderground v.1.15,2013-03-04 19:11:00,
2013-03-04 14:21:00,23.4,18.7,30.19,West,267,6.0,22.0,82,0.00,,,0.00,Wunderground v.1.15,2013-03-04 19:21:00,
2013-03-04 14:26:00,23.5,18.8,30.19,West,280,6.0,22.0,82,0.00,,,0.00,Wunderground v.1.15,2013-03-04 19:26:00,
2013-03-04 14:31:00,23.6,18.9,30.19,West,272,6.0,22.0,82,0.00,,,0.00,Wunderground v.1.15,2013-03-04 19:31:00,
2013-03-04 14:36:00,23.7,18.7,30.19,West,269,6.0,22.0,81,0.00,,,0.00,Wunderground v.1.15,2013-03-04 19:36:00,
2013-03-04 14:41:00,23.7,18.7,30.19,West,259,6.0,22.0,81,0.00,,,0.00,Wunderground v.1.15,2013-03-04 19:41:00,
2013-03-04 14:51:00,23.9,18.6,30.19,West,273,6.0,22.0,80,0.00,,,0.00,Wunderground v.1.15,2013-03-04 19:51:00,
2013-03-04 14:56:00,23.9,18.9,30.19,West,273,6.0,22.0,81,0.00,,,0.00,Wunderground v.1.15,2013-03-04 19:56:00,
2013-03-04 15:01:00,23.9,18.3,30.19,West,265,6.0,22.0,79,0.00,,,0.00,Wunderground v.1.15,2013-03-04 20:01:00,
2013-03-04 15:06:00,24.0,18.4,30.19,West,271,6.0,22.0,79,0.00,,,0.00,Wunderground v.1.15,2013-03-04 20:06:00,
2013-03-04 15:11:00,24.2,18.3,30.19,West,267,6.0,22.0,78,0.00,,,0.00,Wunderground v.1.15,2013-03-04 20:11:00,
2013-03-04 15:16:00,24.3,18.4,30.19,WNW,282,6.0,22.0,78,0.00,,,0.00,Wunderground v.1.15,2013-03-04 20:16:00,
2013-03-04 15:26:00,24.5,18.9,30.18,West,278,6.0,22.0,79,0.00,,,0.00,Wunderground v.1.15,2013-03-04 20:26:00,
2013-03-04 15:36:00,24.4,18.2,30.18,WNW,290,7.0,7.0,77,0.00,,,0.00,Wunderground v.1.15,2013-03-04 20:36:00,
2013-03-04 15:41:00,24.5,18.3,30.18,WNW,288,7.0,22.0,77,0.00,,,0.00,Wunderground v.1.15,2013-03-04 20:41:00,
2013-03-04 15:51:00,24.1,17.6,30.18,WNW,294,7.0,22.0,76,0.00,,,0.00,Wunderground v.1.15,2013-03-04 20:51:00,
2013-03-04 16:00:00,24.3,17.5,30.18,WNW,292,6.0,22.0,75,0.00,,,0.00,Wunderground v.1.15,2013-03-04 21:00:00,
2013-03-04 16:05:00,24.4,17.3,30.18,West,280,6.0,22.0,74,0.00,,,0.00,Wunderground v.1.15,2013-03-04 21:05:00,
2013-03-04 16:10:00,24.5,17.7,30.18,WNW,286,6.0,22.0,75,0.00,,,0.00,Wunderground v.1.15,2013-03-04 21:10:00,
2013-03-04 16:15:00,24.6,18.1,30.18,WNW,286,6.0,22.0,76,0.00,,,0.00,Wunderground v.1.15,2013-03-04 21:15:00,
2013-03-04 16:20:00,24.8,17.7,30.18,West,265,5.0,22.0,74,0.00,,,0.00,Wunderground v.1.15,2013-03-04 21:20:00,
2013-03-04 16:25:00,24.8,17.7,30.18,WNW,283,5.0,22.0,74,0.00,,,0.00,Wunderground v.1.15,2013-03-04 21:25:00,
2013-03-04 16:35:00,25.3,17.9,30.18,West,273,5.0,22.0,73,0.00,,,0.00,Wunderground v.1.15,2013-03-04 21:35:00,
2013-03-04 16:40:00,25.4,17.6,30.18,West,267,5.0,22.0,72,0.00,,,0.00,Wunderground v.1.15,2013-03-04 21:40:00,
2013-03-04 16:45:00,25.5,18.0,30.18,WNW,294,5.0,22.0,73,0.00,,,0.00,Wunderground v.1.15,2013-03-04 21:45:00,
2013-03-04 16:50:00,25.6,16.8,30.18,West,278,5.0,22.0,69,0.00,,,0.00,Wunderground v.1.15,2013-03-04 21:50:00,
2013-03-04 16:55:00,25.6,17.2,30.18,West,264,5.0,22.0,70,0.00,,,0.00,Wunderground v.1.15,2013-03-04 21:55:00,
2013-03-04 17:05:00,25.8,16.7,30.18,WNW,296,3.0,5.0,68,0.00,,,0.00,Wunderground v.1.15,2013-03-04 22:05:00,
2013-03-04 17:10:00,25.6,16.8,30.18,WNW,296,3.0,3.0,69,0.00,,,0.00,Wunderground v.1.15,2013-03-04 22:10:00,
2013-03-04 17:15:00,25.5,17.1,30.18,WNW,302,3.0,4.0,70,0.00,,,0.00,Wunderground v.1.15,2013-03-04 22:15:00,
2013-03-04 17:20:00,25.4,17.0,30.18,WNW,291,2.0,2.0,70,0.00,,,0.00,Wunderground v.1.15,2013-03-04 22:20:00,
2013-03-04 17:25:00,25.4,17.0,30.18,West,280,2.0,22.0,70,0.00,,,0.00,Wunderground v.1.15,2013-03-04 22:25:00,
2013-03-04 17:30:00,25.2,16.8,30.19,WNW,298,2.0,2.0,70,0.00,,,0.00,Wunderground v.1.15,2013-03-04 22:30:00,
2013-03-04 17:40:00,25.4,17.3,30.18,WNW,283,1.0,22.0,71,0.00,,,0.00,Wunderground v.1.15,2013-03-04 22:40:00,
2013-03-04 17:45:00,25.5,17.4,30.18,WNW,287,2.0,22.0,71,0.00,,,0.00,Wunderground v.1.15,2013-03-04 22:45:00,
2013-03-04 17:50:00,25.6,17.5,30.18,WNW,290,2.0,2.0,71,0.00,,,0.00,Wunderground v.1.15,2013-03-04 22:50:00,
2013-03-04 17:56:00,25.6,17.2,30.18,WNW,290,1.0,22.0,70,0.00,,,0.00,Wunderground v.1.15,2013-03-04 22:56:00,
2013-03-04 18:01:00,25.6,16.8,30.19,WNW,295,1.0,1.0,69,0.00,,,0.00,Wunderground v.1.15,2013-03-04 23:01:00,
2013-03-04 18:11:00,25.4,17.6,30.19,WNW,295,1.0,1.0,72,0.00,,,0.00,Wunderground v.1.15,2013-03-04 23:11:00,
2013-03-04 18:16:00,25.2,17.1,30.19,WNW,296,0.0,22.0,71,0.00,,,0.00,Wunderground v.1.15,2013-03-04 23:16:00,
2013-03-04 18:21:00,25.1,17.3,30.19,WNW,295,0.0,22.0,72,0.00,,,0.00,Wunderground v.1.15,2013-03-04 23:21:00,
2013-03-04 18:26:00,24.9,17.1,30.19,WNW,296,0.0,22.0,72,0.00,,,0.00,Wunderground v.1.15,2013-03-04 23:26:00,
2013-03-04 18:31:00,24.8,17.1,30.19,WNW,296,0.0,22.0,72,0.00,,,0.00,Wunderground v.1.15,2013-03-04 23:31:00,
2013-03-04 18:36:00,24.7,16.3,30.19,WNW,296,0.0,22.0,70,0.00,,,0.00,Wunderground v.1.15,2013-03-04 23:36:00,
2013-03-04 18:46:00,24.5,15.8,30.19,WNW,295,0.0,22.0,69,0.00,,,0.00,Wunderground v.1.15,2013-03-04 23:46:00,
2013-03-04 18:51:00,24.3,15.6,30.19,WNW,296,0.0,22.0,69,0.00,,,0.00,Wunderground v.1.15,2013-03-04 23:51:00,
2013-03-04 19:00:00,23.9,14.9,30.19,WNW,296,0.0,22.0,68,0.00,,,0.00,Wunderground v.1.15,2013-03-05 00:00:00,
2013-03-04 19:05:00,23.8,15.1,30.19,WNW,296,0.0,22.0,69,0.00,,,0.00,Wunderground v.1.15,2013-03-05 00:05:00,
2013-03-04 19:10:00,23.7,14.7,30.19,WNW,296,0.0,22.0,68,0.00,,,0.00,Wunderground v.1.15,2013-03-05 00:10:00,
2013-03-04 19:16:00,23.5,14.8,30.19,WNW,295,0.0,22.0,69,0.00,,,0.00,Wunderground v.1.15,2013-03-05 00:16:00,
2013-03-04 19:26:00,22.8,14.8,30.19,WNW,296,0.0,22.0,71,0.00,,,0.00,Wunderground v.1.15,2013-03-05 00:26:00,
2013-03-04 19:31:00,22.5,14.5,30.19,WNW,296,0.0,22.0,71,0.00,,,0.00,Wunderground v.1.15,2013-03-05 00:31:00,
2013-03-04 19:36:00,22.1,14.1,30.20,WNW,295,0.0,22.0,71,0.00,,,0.00,Wunderground v.1.15,2013-03-05 00:36:00,
2013-03-04 19:41:00,21.8,13.8,30.20,WNW,296,0.0,22.0,71,0.00,,,0.00,Wunderground v.1.15,2013-03-05 00:41:00,
2013-03-04 19:51:00,21.3,13.7,30.20,WNW,296,0.0,22.0,72,0.00,,,0.00,Wunderground v.1.15,2013-03-05 00:51:00,
2013-03-04 19:56:00,21.1,13.5,30.20,WNW,296,0.0,22.0,72,0.00,,,0.00,Wunderground v.1.15,2013-03-05 00:56:00,
2013-03-04 20:01:00,20.8,13.2,30.20,WNW,295,0.0,22.0,72,0.00,,,0.00,Wunderground v.1.15,2013-03-05 01:01:00,
2013-03-04 20:06:00,20.6,13.0,30.20,WNW,296,0.0,22.0,72,0.00,,,0.00,Wunderground v.1.15,2013-03-05 01:06:00,
2013-03-04 20:11:00,20.4,12.8,30.20,WNW,295,0.0,22.0,72,0.00,,,0.00,Wunderground v.1.15,2013-03-05 01:11:00,
2013-03-04 20:21:00,19.9,12.6,30.20,WNW,296,0.0,22.0,73,0.00,,,0.00,Wunderground v.1.15,2013-03-05 01:21:00,
2013-03-04 20:26:00,19.7,12.4,30.20,WNW,296,0.0,22.0,73,0.00,,,0.00,Wunderground v.1.15,2013-03-05 01:26:00,
2013-03-04 20:31:00,19.5,12.6,30.20,WNW,296,0.0,22.0,74,0.00,,,0.00,Wunderground v.1.15,2013-03-05 01:31:00,
2013-03-04 20:36:00,19.4,12.8,30.20,WNW,295,0.0,22.0,75,0.00,,,0.00,Wunderground v.1.15,2013-03-05 01:36:00,
2013-03-04 20:41:00,19.3,12.7,30.20,WNW,296,0.0,22.0,75,0.00,,,0.00,Wunderground v.1.15,2013-03-05 01:41:00,
2013-03-04 20:51:00,19.1,12.5,30.20,WNW,296,0.0,22.0,75,0.00,,,0.00,Wunderground v.1.15,2013-03-05 01:51:00,
2013-03-04 20:56:00,19.1,12.5,30.20,WNW,296,0.0,22.0,75,0.00,,,0.00,Wunderground v.1.15,2013-03-05 01:56:00,
2013-03-04 21:01:00,19.0,12.7,30.20,WNW,295,0.0,22.0,76,0.00,,,0.00,Wunderground v.1.15,2013-03-05 02:01:00,
2013-03-04 21:06:00,18.8,12.5,30.20,WNW,296,0.0,22.0,76,0.00,,,0.00,Wunderground v.1.15,2013-03-05 02:06:00,
2013-03-04 21:11:00,18.7,12.7,30.20,WNW,295,0.0,22.0,77,0.00,,,0.00,Wunderground v.1.15,2013-03-05 02:11:00,
2013-03-04 21:16:00,18.5,12.5,30.20,WNW,295,0.0,22.0,77,0.00,,,0.00,Wunderground v.1.15,2013-03-05 02:16:00,
2013-03-04 21:26:00,18.2,12.5,30.20,WNW,296,0.0,22.0,78,0.00,,,0.00,Wunderground v.1.15,2013-03-05 02:26:00,
2013-03-04 21:31:00,18.0,12.3,30.20,WNW,296,0.0,22.0,78,0.00,,,0.00,Wunderground v.1.15,2013-03-05 02:31:00,
2013-03-04 21:36:00,17.9,12.2,30.20,WNW,295,0.0,22.0,78,0.00,,,0.00,Wunderground v.1.15,2013-03-05 02:36:00,
2013-03-04 21:41:00,17.9,12.5,30.20,WNW,296,0.0,22.0,79,0.00,,,0.00,Wunderground v.1.15,2013-03-05 02:41:00,
2013-03-04 21:46:00,17.9,12.5,30.20,WNW,295,0.0,22.0,79,0.00,,,0.00,Wunderground v.1.15,2013-03-05 02:46:00,
2013-03-04 21:51:00,17.8,12.4,30.20,WNW,296,0.0,22.0,79,0.00,,,0.00,Wunderground v.1.15,2013-03-05 02:51:00,
2013-03-04 22:01:00,17.7,12.6,30.20,WNW,296,0.0,22.0,80,0.00,,,0.00,Wunderground v.1.15,2013-03-05 03:01:00,
2013-03-04 22:06:00,17.7,12.6,30.20,WNW,296,0.0,22.0,80,0.00,,,0.00,Wunderground v.1.15,2013-03-05 03:06:00,
2013-03-04 22:11:00,17.9,13.1,30.21,WNW,296,0.0,22.0,81,0.00,,,0.00,Wunderground v.1.15,2013-03-05 03:11:00,
2013-03-04 22:16:00,18.0,12.9,30.20,WNW,296,0.0,22.0,80,0.00,,,0.00,Wunderground v.1.15,2013-03-05 03:16:00,
2013-03-04 22:21:00,17.6,12.5,30.20,WNW,295,0.0,22.0,80,0.00,,,0.00,Wunderground v.1.15,2013-03-05 03:21:00,
2013-03-04 22:31:00,17.0,12.2,30.21,WNW,295,0.0,22.0,81,0.00,,,0.00,Wunderground v.1.15,2013-03-05 03:31:00,
2013-03-04 22:36:00,16.9,12.4,30.21,WNW,296,0.0,22.0,82,0.00,,,0.00,Wunderground v.1.15,2013-03-05 03:36:00,
2013-03-04 22:41:00,16.6,12.1,30.21,WNW,296,0.0,22.0,82,0.00,,,0.00,Wunderground v.1.15,2013-03-05 03:41:00,
2013-03-04 22:46:00,16.3,12.0,30.21,WNW,295,0.0,22.0,83,0.00,,,0.00,Wunderground v.1.15,2013-03-05 03:46:00,
2013-03-04 22:51:00,16.0,11.7,30.21,WNW,296,0.0,22.0,83,0.00,,,0.00,Wunderground v.1.15,2013-03-05 03:51:00,
2013-03-04 22:56:00,15.8,11.6,30.21,WNW,295,0.0,22.0,83,0.00,,,0.00,Wunderground v.1.15,2013-03-05 03:56:00,
2013-03-04 23:06:00,15.6,11.4,30.21,WNW,295,0.0,22.0,83,0.00,,,0.00,Wunderground v.1.15,2013-03-05 04:06:00,
2013-03-04 23:11:00,15.7,11.7,30.21,WNW,296,0.0,22.0,84,0.00,,,0.00,Wunderground v.1.15,2013-03-05 04:11:00,
2013-03-04 23:16:00,15.8,11.8,30.21,WNW,296,0.0,22.0,84,0.00,,,0.00,Wunderground v.1.15,2013-03-05 04:16:00,
2013-03-04 23:21:00,15.8,11.8,30.21,WNW,295,0.0,22.0,84,0.00,,,0.00,Wunderground v.1.15,2013-03-05 04:21:00,
2013-03-04 23:26:00,16.0,12.3,30.22,WNW,296,0.0,22.0,85,0.00,,,0.00,Wunderground v.1.15,2013-03-05 04:26:00,
2013-03-04 23:36:00,16.6,12.6,30.22,WNW,296,0.0,22.0,84,0.00,,,0.00,Wunderground v.1.15,2013-03-05 04:36:00,
2013-03-04 23:41:00,16.7,12.7,30.22,WNW,296,0.0,22.0,84,0.00,,,0.00,Wunderground v.1.15,2013-03-05 04:41:00,
2013-03-04 23:46:00,16.6,12.3,30.22,WNW,295,0.0,22.0,83,0.00,,,0.00,Wunderground v.1.15,2013-03-05 04:46:00,
2013-03-04 23:51:00,16.6,12.3,30.22,WNW,296,0.0,22.0,83,0.00,,,0.00,Wunderground v.1.15,2013-03-05 04:51:00,
2013-03-04 23:56:00,16.6,12.1,30.22,WNW,296,0.0,22.0,82,0.00,,,0.00,Wunderground v.1.15,2013-03-05 04:56:00,